CYS weather

Cheyenne Regional Jerry Olson Field
Cheyenne, Wyoming, United States

Public forecast

Using degrees Fahrenheit for public forecast. Weather courtesy of forecast.io.

Current aviation weather report (METAR) for Cheyenne Regional Jerry Olson Field

Retrieved 2019/11/22 23:53 UTC (30 minutes ago):

KCYS 222353Z 32008G17KT 10SM CLR 01/M08 A2995 RMK AO2 SLP170 T00061078 10039 21039 53002

Aviation forecast (TAF) for Cheyenne Regional Jerry Olson Field

Retrieved 2019-11-23 00:22 UTC (57 seconds ago):

TAF KCYS 222320Z 2300/2324 30020KT P6SM SKC FM230700 30018G26KT P6SM FEW250 FM231500 30013KT P6SM BKN250